Latest Weather Observations for Mandurah

IDW60901

Issued at 9:51 am WST Friday 9 December 2016 (issued every 10 minutes, with the page automatically refreshed every 10 minutes)

About weather observations | Map of Perth area stations | Latest observations for Perth area | Other Formats
Station Details ID: 009977 Name: MANDURAH Lat: -32.52 Lon: 115.71 Height: 3.0 m
Data from the previous 72 hours. | See also: Recent months at Mandurah
Date/Time
WST
Temp
°C
App
Temp
°C
Dew
Point
°C
Rel
Hum
%
Delta-T
°C
Wind Press
QNH
hPa
Press
MSL
hPa
Rain since
9am
mm
Dir  Spd
km/h
Gust
km/h
Spd
kts
Gust
kts
09/09:30am 27.5 24.3 6.8 27 10.9 NE 13 19 7 10 1014.7 1014.7 0.0
09/09:00am 27.0 23.6 5.9 26 10.9 NE 13 20 7 11 1014.9 1014.9 0.0
09/08:30am 25.1 22.3 6.8 31 9.5 ENE 11 15 6 8 1015.3 1015.3 0.0
09/08:00am 23.0 20.7 7.5 37 8.1 E 9 15 5 8 1015.5 1015.5 0.0
09/07:30am 20.9 18.6 7.5 42 6.9 E 9 15 5 8 1015.7 1015.7 0.0
09/07:00am 19.3 17.0 7.4 46 6.0 E 9 13 5 7 1015.7 1015.7 0.0
09/06:30am 18.0 15.7 7.4 50 5.3 ESE 9 15 5 8 1015.7 1015.7 0.0
09/06:00am 17.2 14.9 7.3 52 4.9 E 9 15 5 8 1015.5 1015.5 0.0
09/05:30am 16.6 14.3 7.5 55 4.6 ESE 9 13 5 7 1015.4 1015.4 0.0
09/05:00am 16.7 14.3 7.1 53 4.8 ESE 9 17 5 9 1015.1 1015.1 0.0
09/04:30am 17.1 15.2 7.5 53 4.8 SE 7 11 4 6 1014.9 1014.9 0.0
09/04:00am 17.6 15.8 7.1 50 5.2 SSE 6 11 3 6 1014.8 1014.8 0.0
09/03:30am 18.1 15.3 6.9 48 5.6 SE 11 15 6 8 1014.5 1014.5 0.0
09/03:00am 18.4 14.9 7.2 48 5.6 ESE 15 22 8 12 1014.4 1014.4 0.0
09/02:30am 18.4 15.1 6.6 46 5.9 ESE 13 19 7 10 1014.5 1014.5 0.0
09/02:00am 18.6 15.2 6.1 44 6.2 ESE 13 19 7 10 1014.5 1014.5 0.0
09/01:30am 18.8 15.6 5.3 41 6.6 ESE 11 19 6 10 1014.5 1014.5 0.0
09/01:00am 19.0 16.9 8.1 49 5.6 SE 9 13 5 7 1014.8 1014.8 0.0
09/12:30am 19.2 18.2 12.2 64 3.9 SE 9 15 5 8 1015.0 1015.0 0.0
09/12:00am 19.6 19.7 14.4 72 3.0 SSE 7 13 4 7 1015.0 1015.0 0.0
 
Date/Time
WST
Temp
°C
App
Temp
°C
Dew
Point
°C
Rel
Hum
%
Delta-T
°C
Wind Press
QNH
hPa
Press
MSL
hPa
Rain since
9am
mm
Dir  Spd
km/h
Gust
km/h
Spd
kts
Gust
kts
08/11:30pm 20.1 20.1 15.3 74 2.8 SSE 9 15 5 8 1015.2 1015.2 0.0
08/11:00pm 20.3 20.9 15.9 76 2.6 SSE 7 11 4 6 1015.4 1015.4 0.0
08/10:30pm 20.4 20.8 15.4 73 3.0 SSE 7 11 4 6 1015.6 1015.6 0.0
08/10:00pm 20.0 20.3 14.4 70 3.2 SSW 6 9 3 5 1015.9 1015.9 0.0
08/09:30pm 19.8 20.0 13.0 65 3.8 SW 4 6 2 3 1016.1 1016.1 0.0
08/09:00pm 21.0 20.7 13.4 62 4.4 S 7 9 4 5 1015.9 1015.9 0.0
08/08:30pm 21.1 20.9 13.5 62 4.4 S 7 13 4 7 1016.0 1016.0 0.0
08/08:00pm 21.3 21.1 13.5 61 4.5 S 7 11 4 6 1016.1 1016.1 0.0
08/07:30pm 21.5 20.6 13.7 61 4.5 SSW 11 15 6 8 1016.1 1016.1 0.0
08/07:00pm 22.1 20.5 12.9 56 5.3 SSW 13 19 7 10 1015.9 1015.9 0.0
08/06:30pm 22.8 21.1 12.4 52 5.9 SSW 13 19 7 10 1015.8 1015.8 0.0
08/06:00pm 23.6 21.3 11.6 47 6.7 S 15 26 8 14 1015.4 1015.4 0.0
08/05:30pm 23.8 21.0 11.2 45 7.0 SSW 17 26 9 14 1015.2 1015.2 0.0
08/05:00pm 23.9 21.1 12.5 49 6.5 SW 19 28 10 15 1015.2 1015.2 0.0
08/04:30pm 24.2 21.4 13.1 50 6.4 WSW 20 33 11 18 1015.3 1015.3 0.0
08/04:00pm 26.8 24.6 12.1 40 8.5 WSW 15 24 8 13 1015.4 1015.4 0.0
08/03:30pm 26.7 24.1 10.8 37 9.0 SW 15 22 8 12 1015.6 1015.6 0.0
08/03:00pm 25.8 23.0 12.6 44 7.6 SW 19 30 10 16 1015.9 1015.9 0.0
08/02:30pm 25.3 21.7 12.9 46 7.2 WSW 24 30 13 16 1016.2 1016.2 0.0
08/02:00pm 25.8 22.9 12.3 43 7.8 WSW 19 28 10 15 1016.4 1016.4 0.0
08/01:30pm 24.4 20.3 11.4 44 7.3 WSW 24 33 13 18 1016.8 1016.8 0.0
08/01:00pm 25.3 21.4 10.7 40 8.1 WSW 22 30 12 16 1017.2 1017.2 0.0
08/12:30pm 25.6 21.9 10.2 38 8.5 WSW 20 28 11 15 1017.6 1017.6 0.0
08/12:00pm 25.3 22.6 3.9 25 10.6 SW 7 13 4 7 1018.1 1018.1 0.0
08/11:30am 26.0 23.1 2.7 22 11.3 E 7 11 4 6 1018.7 1018.7 0.0
08/11:00am 24.7 22.3 4.5 27 10.0 E 6 11 3 6 1019.2 1019.2 0.0
08/10:30am 23.8 20.8 4.2 28 9.7 SE 9 20 5 11 1019.7 1019.7 0.0
08/10:00am 22.5 19.3 5.0 32 8.7 ESE 11 22 6 12 1020.1 1020.1 0.0
08/09:30am 21.3 18.3 6.0 37 7.7 ENE 11 17 6 9 1020.5 1020.5 0.0
08/09:00am 20.3 16.8 5.5 38 7.3 ENE 13 22 7 12 1020.6 1020.6 0.0
08/08:30am 19.0 16.0 5.8 42 6.5 E 11 24 6 13 1020.8 1020.8 0.0
08/08:00am 17.4 13.6 5.7 46 5.7 ENE 15 22 8 12 1021.0 1021.0 0.0
08/07:30am 15.9 11.3 5.5 50 5.0 E 19 32 10 17 1021.0 1021.0 0.0
08/07:00am 15.2 11.4 5.7 53 4.5 E 15 24 8 13 1021.0 1021.0 0.0
08/06:30am 14.2 10.7 5.6 56 4.1 E 13 19 7 10 1020.8 1020.8 0.0
08/06:00am 13.5 10.4 5.7 59 3.7 E 11 20 6 11 1020.7 1020.7 0.0
08/05:30am 13.1 10.1 5.8 61 3.4 ESE 11 20 6 11 1020.3 1020.3 0.0
08/05:00am 13.0 9.6 5.7 61 3.4 ESE 13 24 7 13 1019.9 1019.9 0.0
08/04:30am 13.2 9.4 5.6 60 3.6 ESE 15 24 8 13 1019.5 1019.5 0.0
08/04:00am 13.4 9.6 5.8 60 3.6 ESE 15 24 8 13 1019.2 1019.2 0.0
08/03:30am 13.8 10.0 5.9 59 3.7 ESE 15 30 8 16 1019.0 1019.0 0.0
08/03:00am 14.2 9.7 6.1 58 3.9 ESE 19 28 10 15 1018.8 1018.8 0.0
08/02:30am 14.7 10.3 6.5 58 4.0 ESE 19 30 10 16 1018.7 1018.7 0.0
08/02:00am 15.1 10.7 6.7 57 4.1 ESE 19 32 10 17 1018.8 1018.8 0.0
08/01:30am 15.6 11.0 6.6 55 4.4 ESE 20 32 11 17 1018.6 1018.6 0.0
08/01:00am 16.1 11.8 6.8 54 4.6 SE 19 28 10 15 1018.9 1018.9 0.0
08/12:30am 16.9 13.0 7.3 53 4.8 SE 17 24 9 13 1018.7 1018.7 0.0
08/12:00am 17.6 13.7 7.1 50 5.2 SE 17 26 9 14 1018.8 1018.8 0.0
 
Date/Time
WST
Temp
°C
App
Temp
°C
Dew
Point
°C
Rel
Hum
%
Delta-T
°C
Wind Press
QNH
hPa
Press
MSL
hPa
Rain since
9am
mm
Dir  Spd
km/h
Gust
km/h
Spd
kts
Gust
kts
07/11:30pm 17.8 13.8 8.1 53 5.0 SE 19 28 10 15 1018.6 1018.6 0.0
07/11:00pm 18.2 15.2 9.3 56 4.7 SSE 15 24 8 13 1018.6 1018.6 0.0
07/10:30pm 18.6 15.1 8.8 53 5.1 SSE 17 28 9 15 1018.5 1018.5 0.0
07/10:00pm 18.9 14.8 8.8 52 5.2 SSE 20 30 11 16 1018.3 1018.3 0.0
07/09:30pm 19.6 15.6 9.2 51 5.5 SSE 20 32 11 17 1018.0 1018.0 0.0
07/09:00pm 20.1 16.0 8.8 48 5.9 S 20 35 11 19 1017.8 1017.8 0.0
07/08:30pm 20.6 16.5 10.1 51 5.7 S 22 37 12 20 1017.4 1017.4 0.0
07/08:00pm 20.8 17.6 11.4 55 5.2 SSW 19 28 10 15 1017.1 1017.1 0.0
07/07:30pm 20.8 17.3 10.9 53 5.4 SSW 20 33 11 18 1016.8 1016.8 0.0
07/07:00pm 21.0 16.9 10.2 50 5.8 SSW 22 37 12 20 1016.6 1016.6 0.0
07/06:30pm 21.2 16.6 9.8 48 6.1 SSW 24 41 13 22 1016.3 1016.3 0.0
07/06:00pm 21.6 16.8 8.8 44 6.8 SSW 24 41 13 22 1015.9 1015.9 0.0
07/05:30pm 22.3 16.6 8.4 41 7.3 SSW 28 43 15 23 1015.5 1015.5 0.0
07/05:00pm 22.8 18.2 8.1 39 7.7 SSW 22 37 12 20 1015.5 1015.5 0.0
07/04:30pm 23.3 19.3 9.0 40 7.7 SW 20 32 11 17 1015.6 1015.6 0.0
07/04:00pm 22.4 17.3 9.2 43 7.1 SSW 26 37 14 20 1015.6 1015.6 0.0
07/03:30pm 22.9 17.9 6.6 35 8.4 SSW 22 37 12 20 1015.7 1015.7 0.0
07/03:00pm 23.5 18.5 8.0 37 8.2 SSW 24 39 13 21 1015.9 1015.9 0.0
07/02:30pm 22.9 18.8 8.6 40 7.6 SSW 20 33 11 18 1016.1 1016.1 0.0
07/02:00pm 22.1 17.7 8.9 43 7.0 SSW 22 33 12 18 1016.2 1016.2 0.0
07/01:30pm 22.2 17.8 9.0 43 7.0 SSW 22 33 12 18 1016.2 1016.2 0.0
07/01:00pm 21.9 17.2 9.1 44 6.8 SSW 24 39 13 21 1016.3 1016.3 0.0
07/12:30pm 21.8 17.8 9.0 44 6.8 SSW 20 33 11 18 1016.3 1016.3 0.0
07/12:00pm 21.6 17.9 9.5 46 6.5 SSW 19 35 10 19 1016.6 1016.6 0.0
07/11:30am 21.9 18.4 8.8 43 6.9 SSW 17 28 9 15 1016.8 1016.8 0.0
07/11:00am 21.2 17.3 8.8 45 6.5 SSW 19 30 10 16 1017.0 1017.0 0.0
07/10:30am 20.7 17.0 8.0 44 6.6 S 17 30 9 16 1016.9 1016.9 0.0
07/10:00am 21.2 17.2 9.1 46 6.4 SSW 20 32 11 17 1016.9 1016.9 0.0
07/09:30am 20.6 16.7 9.5 49 5.9 S 20 33 11 18 1016.9 1016.9 0.0
07/09:00am 20.2 15.0 8.8 48 6.0 SSW 26 41 14 22 1016.7 1016.7 0.0
07/08:30am 19.7 14.9 10.4 55 5.0 S 26 41 14 22 1016.4 1016.4 0.0
07/08:00am 19.4 15.2 12.4 64 3.9 SSW 26 41 14 22 1016.2 1016.2 0.0
07/07:30am 19.3 16.4 13.0 67 3.6 SSW 20 35 11 19 1015.8 1015.8 0.0
07/07:00am 18.3 15.7 14.8 80 2.0 SSW 22 32 12 17 1015.5 1015.5 0.0
07/06:30am 19.0 16.8 13.4 70 3.2 SW 17 30 9 16 1015.0 1015.0 0.0
07/06:00am 19.0 16.8 13.2 69 3.3 SW 17 28 9 15 1014.7 1014.7 0.0
07/05:30am 18.1 17.0 14.2 78 2.2 WSW 13 20 7 11 1014.6 1014.6 0.0
07/05:00am 17.9 16.9 13.4 75 2.5 WSW 11 17 6 9 1014.6 1014.6 0.0
07/04:30am 17.9 16.1 13.4 75 2.5 WSW 15 20 8 11 1014.4 1014.4 0.0
07/04:00am 18.3 15.5 13.2 72 2.9 SW 20 33 11 18 1014.2 1014.2 0.0
07/03:30am 19.1 15.8 10.9 59 4.5 SW 19 26 10 14 1013.8 1013.8 0.0
07/03:00am 18.9 16.2 11.7 63 4.0 WSW 17 24 9 13 1013.8 1013.8 0.0
07/02:30am 18.9 16.9 10.2 57 4.7 SW 11 17 6 9 1013.7 1013.7 0.0
07/02:00am 18.9 16.0 11.0 60 4.3 SW 17 28 9 15 1013.8 1013.8 0.0
07/01:30am 18.5 16.7 10.8 61 4.2 SW 11 20 6 11 1013.8 1013.8 0.0
07/01:00am 18.7 16.1 10.8 60 4.3 SW 15 22 8 12 1013.9 1013.9 0.0
07/12:30am 18.7 16.0 11.8 64 3.8 SW 17 24 9 13 1014.0 1014.0 0.0
07/12:00am 19.0 16.3 11.8 63 4.0 WSW 17 26 9 14 1014.1 1014.1 0.0
 
Date/Time
WST
Temp
°C
App
Temp
°C
Dew
Point
°C
Rel
Hum
%
Delta-T
°C
Wind Press
QNH
hPa
Press
MSL
hPa
Rain since
9am
mm
Dir  Spd
km/h
Gust
km/h
Spd
kts
Gust
kts
06/11:30pm 18.9 16.5 12.6 67 3.5 WSW 17 28 9 15 1014.2 1014.2 0.0
06/11:00pm 19.0 17.3 12.5 66 3.6 WSW 13 22 7 12 1014.4 1014.4 0.0
06/10:30pm 18.6 17.1 11.9 65 3.7 SW 11 17 6 9 1014.8 1014.8 0.0
06/10:00pm 18.8 16.5 11.6 63 3.9 SW 15 22 8 12 1015.0 1015.0 0.0
06/09:30pm 19.2 17.2 12.7 66 3.6 SW 15 24 8 13 1015.1 1015.1 0.0
06/09:00pm 19.1 17.3 12.1 64 3.9 SW 13 19 7 10 1015.4 1015.4 0.0
06/08:30pm 19.0 16.4 12.0 64 3.9 SW 17 30 9 16 1015.3 1015.3 0.0
06/08:00pm 19.2 16.5 12.9 67 3.5 SW 19 26 10 14 1015.1 1015.1 0.0
06/07:30pm 19.0 17.7 12.5 66 3.6 SSW 11 19 6 10 1015.1 1015.1 0.0
06/07:00pm 19.2 17.0 12.2 64 3.9 SW 15 24 8 13 1014.8 1014.8 0.0
06/06:30pm 19.3 16.6 11.6 61 4.2 SW 17 24 9 13 1014.6 1014.6 0.0
06/06:00pm 20.1 17.4 11.6 58 4.7 SW 17 24 9 13 1014.2 1014.2 0.0
06/05:30pm 20.5 17.3 11.2 55 5.1 SW 19 30 10 16 1014.0 1014.0 0.0
06/05:00pm 21.4 18.5 10.9 51 5.8 SW 17 24 9 13 1013.8 1013.8 0.0
06/04:30pm 21.6 18.3 11.0 51 5.8 SW 19 28 10 15 1013.9 1013.9 0.0
06/04:00pm 21.8 18.4 11.2 51 5.9 WSW 20 32 11 17 1014.2 1014.2 0.0
06/03:30pm 22.1 18.4 11.5 51 5.9 WSW 22 35 12 19 1014.3 1014.3 0.0
06/03:00pm 22.3 18.4 10.8 48 6.3 WSW 22 32 12 17 1014.6 1014.6 0.0
06/02:30pm 22.5 18.6 10.9 48 6.4 WSW 22 32 12 17 1014.9 1014.9 0.0
06/02:00pm 22.7 19.5 12.0 50 6.0 WSW 20 30 11 16 1015.1 1015.1 0.0
06/01:30pm 21.8 18.0 11.2 51 5.9 SW 22 32 12 17 1015.3 1015.3 0.0
06/01:00pm 21.9 18.6 11.6 52 5.7 SW 20 30 11 16 1015.5 1015.5 0.0
06/12:30pm 22.4 18.9 10.9 48 6.4 WSW 20 30 11 16 1015.8 1015.8 0.0
06/12:00pm 22.0 18.5 10.8 49 6.2 WSW 20 30 11 16 1016.1 1016.1 0.0
06/11:30am 22.8 20.0 11.2 48 6.5 WSW 17 26 9 14 1016.4 1016.4 0.0
06/11:00am 22.9 19.7 10.0 44 7.0 WSW 17 20 9 11 1016.6 1016.6 0.0
06/10:30am 22.4 19.9 10.9 48 6.4 WSW 15 20 8 11 1016.8 1016.8 0.0
06/10:00am 21.5 19.0 9.7 47 6.3 W 13 17 7 9 1016.9 1016.9 0.0

Latest Capital City Observations: Canberra | Sydney | Melbourne | Brisbane | Adelaide | Perth | Hobart | Darwin

Other Formats:

Comma delimited format used in spreadsheet applications
http://www.bom.gov.au/fwo/IDW60901/IDW60901.94605.axf

JavaScript Object Notation format (JSON) in row-major order
http://www.bom.gov.au/fwo/IDW60901/IDW60901.94605.json